createdAt,value
2018-09-02T00:00:14.093Z,0.00
2018-09-02T00:01:14.184Z,0.00
2018-09-02T00:02:14.279Z,0.00
2018-09-02T00:03:14.373Z,0.00
2018-09-02T00:04:14.467Z,0.00
2018-09-02T00:05:14.561Z,0.00
2018-09-02T00:06:14.671Z,0.00
2018-09-02T00:07:14.766Z,0.00
2018-09-02T00:08:14.860Z,0.00
2018-09-02T00:09:14.953Z,0.00
2018-09-02T00:10:15.054Z,0.00
2018-09-02T00:11:15.149Z,0.00
2018-09-02T00:12:15.241Z,0.00
2018-09-02T00:13:15.335Z,0.00
2018-09-02T00:14:15.426Z,0.00
2018-09-02T00:15:15.519Z,0.00
2018-09-02T00:16:15.609Z,0.00
2018-09-02T00:17:15.702Z,0.00
2018-09-02T00:18:15.794Z,0.00
2018-09-02T00:19:15.895Z,0.00
2018-09-02T00:20:15.992Z,0.00
2018-09-02T00:21:16.081Z,0.00
2018-09-02T00:22:16.175Z,0.00
2018-09-02T00:23:16.267Z,0.00
2018-09-02T00:24:16.361Z,0.00
2018-09-02T00:25:16.453Z,0.00
2018-09-02T00:26:16.538Z,0.00
2018-09-02T00:27:16.628Z,0.00
2018-09-02T00:28:16.723Z,0.00
2018-09-02T00:29:16.817Z,0.00
2018-09-02T00:30:16.936Z,0.00
2018-09-02T00:31:17.003Z,0.00
2018-09-02T00:32:17.113Z,0.00
2018-09-02T00:33:17.253Z,0.00
2018-09-02T00:34:17.306Z,0.00
2018-09-02T00:35:17.403Z,0.00
2018-09-02T00:36:17.490Z,0.00
2018-09-02T00:37:17.586Z,0.00
2018-09-02T00:38:17.679Z,0.00
2018-09-02T00:39:17.767Z,0.00
2018-09-02T00:40:17.874Z,0.00
2018-09-02T00:41:17.969Z,0.00
2018-09-02T00:42:18.063Z,0.00
2018-09-02T00:43:18.153Z,0.00
2018-09-02T00:44:18.247Z,0.00
2018-09-02T00:45:18.347Z,0.00
2018-09-02T00:46:18.442Z,0.00
2018-09-02T00:47:18.539Z,0.00
2018-09-02T00:48:18.632Z,0.00
2018-09-02T00:49:18.729Z,0.00
2018-09-02T00:50:18.816Z,0.00
2018-09-02T00:51:18.910Z,0.00
2018-09-02T00:52:19.008Z,0.00
2018-09-02T00:53:19.100Z,0.00
2018-09-02T00:54:19.191Z,0.00
2018-09-02T00:55:19.284Z,0.00
2018-09-02T00:56:19.378Z,0.00
2018-09-02T00:57:19.472Z,0.00
2018-09-02T00:58:19.565Z,0.00
2018-09-02T00:59:19.658Z,0.00
2018-09-02T01:00:19.750Z,0.00
2018-09-02T01:01:19.845Z,0.00
2018-09-02T01:02:19.939Z,0.00
2018-09-02T01:03:20.033Z,0.00
2018-09-02T01:04:20.125Z,0.00
2018-09-02T01:05:20.209Z,0.00
2018-09-02T01:06:20.315Z,0.00
2018-09-02T01:07:20.407Z,0.00
2018-09-02T01:08:20.504Z,0.00
2018-09-02T01:09:20.594Z,0.00
2018-09-02T01:10:20.687Z,0.00
2018-09-02T01:11:20.781Z,0.00
2018-09-02T01:12:20.876Z,0.00
2018-09-02T01:13:20.970Z,0.00
2018-09-02T01:14:21.061Z,0.00
2018-09-02T01:15:21.151Z,0.00
2018-09-02T01:16:21.243Z,0.00
2018-09-02T01:17:21.345Z,0.00
2018-09-02T01:18:21.421Z,0.00
2018-09-02T01:19:21.514Z,0.00
2018-09-02T01:20:21.609Z,0.00
2018-09-02T01:21:21.704Z,0.00
2018-09-02T01:22:21.796Z,0.00
2018-09-02T01:23:21.891Z,0.00
2018-09-02T01:24:22.002Z,0.00
2018-09-02T01:25:22.093Z,0.00
2018-09-02T01:26:22.190Z,0.00
2018-09-02T01:27:22.280Z,0.00
2018-09-02T01:28:22.376Z,0.00
2018-09-02T01:29:22.464Z,0.00
2018-09-02T01:30:22.564Z,0.00
2018-09-02T01:31:22.649Z,0.00
2018-09-02T01:32:22.745Z,0.00
2018-09-02T01:33:22.839Z,0.00
2018-09-02T01:34:22.932Z,0.00
2018-09-02T01:35:23.026Z,0.00
2018-09-02T01:36:23.122Z,0.00
2018-09-02T01:37:23.222Z,0.00
2018-09-02T01:38:23.314Z,0.00
2018-09-02T01:39:23.408Z,0.00
2018-09-02T01:40:23.511Z,0.00
2018-09-02T01:41:23.582Z,0.00
2018-09-02T01:42:23.674Z,0.00
2018-09-02T01:43:23.766Z,0.00
2018-09-02T01:44:23.857Z,0.00
2018-09-02T01:45:23.945Z,0.00
2018-09-02T01:46:24.042Z,0.00
2018-09-02T01:47:24.142Z,0.00
2018-09-02T01:48:24.227Z,0.00
2018-09-02T01:49:24.321Z,0.00
2018-09-02T01:50:24.414Z,0.00
2018-09-02T01:51:24.512Z,0.00
2018-09-02T01:52:24.606Z,0.00
2018-09-02T01:53:24.703Z,0.00
2018-09-02T01:54:24.797Z,0.00
2018-09-02T01:55:24.888Z,0.00
2018-09-02T01:56:24.983Z,0.00
2018-09-02T01:57:25.075Z,0.00
2018-09-02T01:58:25.168Z,0.00
2018-09-02T01:59:25.261Z,0.00
2018-09-02T02:00:25.352Z,0.00
2018-09-02T02:01:25.444Z,0.00
2018-09-02T02:02:25.539Z,0.00
2018-09-02T02:03:25.631Z,0.00
2018-09-02T02:04:25.723Z,0.00
2018-09-02T02:05:25.835Z,0.00
2018-09-02T02:06:25.931Z,0.00
2018-09-02T02:07:26.021Z,0.00
2018-09-02T02:08:26.114Z,0.00
2018-09-02T02:09:26.208Z,0.00
2018-09-02T02:10:26.304Z,0.00
2018-09-02T02:11:26.395Z,0.00
2018-09-02T02:12:26.486Z,0.00
2018-09-02T02:13:26.582Z,0.00
2018-09-02T02:14:26.678Z,0.00
2018-09-02T02:15:26.768Z,0.00
2018-09-02T02:16:26.860Z,0.00
2018-09-02T02:17:26.955Z,0.00
2018-09-02T02:18:27.047Z,0.00
2018-09-02T02:19:27.146Z,0.00
2018-09-02T02:20:27.235Z,0.00
2018-09-02T02:21:27.332Z,0.00
2018-09-02T02:22:27.421Z,0.00
2018-09-02T02:23:27.515Z,0.00
2018-09-02T02:24:27.608Z,0.00
2018-09-02T02:25:27.701Z,0.00
2018-09-02T02:26:27.794Z,0.00
2018-09-02T02:27:27.886Z,0.00
2018-09-02T02:28:27.985Z,0.00
2018-09-02T02:29:28.077Z,0.00
2018-09-02T02:30:28.169Z,0.00
2018-09-02T02:31:28.262Z,0.00
2018-09-02T02:32:28.353Z,0.00
2018-09-02T02:33:28.449Z,0.00
2018-09-02T02:34:28.539Z,0.00
2018-09-02T02:35:28.632Z,0.00
2018-09-02T02:36:28.725Z,0.00
2018-09-02T02:37:28.817Z,0.00
2018-09-02T02:38:28.909Z,0.00
2018-09-02T02:39:29.002Z,0.00
2018-09-02T02:40:29.097Z,0.00
2018-09-02T02:41:29.188Z,0.00
2018-09-02T02:42:29.271Z,0.00
2018-09-02T02:43:29.362Z,0.00
2018-09-02T02:44:29.455Z,0.00
2018-09-02T02:45:29.548Z,0.00
2018-09-02T02:46:29.640Z,0.00
2018-09-02T02:47:29.734Z,0.00
2018-09-02T02:48:29.851Z,0.00
2018-09-02T02:49:29.945Z,0.00
2018-09-02T02:50:30.037Z,0.00
2018-09-02T02:51:30.128Z,0.00
2018-09-02T02:52:30.222Z,0.00
2018-09-02T02:53:30.314Z,0.00
2018-09-02T02:54:30.408Z,0.00
2018-09-02T02:55:30.496Z,0.00
2018-09-02T02:56:30.591Z,0.00
2018-09-02T02:57:30.684Z,0.00
2018-09-02T02:58:30.775Z,0.00
2018-09-02T02:59:30.867Z,0.00
2018-09-02T03:00:30.959Z,0.00
2018-09-02T03:01:31.076Z,0.00
2018-09-02T03:02:31.168Z,0.00
2018-09-02T03:03:31.258Z,0.00
2018-09-02T03:04:31.351Z,0.00
2018-09-02T03:05:31.446Z,0.00
2018-09-02T03:06:31.538Z,0.00
2018-09-02T03:07:31.632Z,0.00
2018-09-02T03:08:31.719Z,0.00
2018-09-02T03:09:31.810Z,0.00
2018-09-02T03:10:31.906Z,0.00
2018-09-02T03:11:32.002Z,0.00
2018-09-02T03:12:32.095Z,0.00
2018-09-02T03:13:32.189Z,0.00
2018-09-02T03:14:32.307Z,0.00
2018-09-02T03:15:32.399Z,0.00
2018-09-02T03:16:32.492Z,0.00
2018-09-02T03:17:32.584Z,0.00
2018-09-02T03:18:32.677Z,0.00
2018-09-02T03:19:32.768Z,0.00
2018-09-02T03:20:32.862Z,0.00
2018-09-02T03:21:32.953Z,0.00
2018-09-02T03:22:33.044Z,0.00
2018-09-02T03:23:33.136Z,0.00
2018-09-02T03:24:33.234Z,0.00
2018-09-02T03:25:33.322Z,0.00
2018-09-02T03:26:33.414Z,0.00
2018-09-02T03:27:33.524Z,0.00
2018-09-02T03:28:33.620Z,0.00
2018-09-02T03:29:33.726Z,0.00
2018-09-02T03:30:33.801Z,0.00
2018-09-02T03:31:33.893Z,0.00
2018-09-02T03:32:33.981Z,0.00
2018-09-02T03:33:34.076Z,0.00
2018-09-02T03:34:34.177Z,0.00
2018-09-02T03:35:34.283Z,0.00
2018-09-02T03:36:34.376Z,0.00
2018-09-02T03:37:34.470Z,0.00
2018-09-02T03:38:34.562Z,0.00
2018-09-02T03:39:34.653Z,0.00
2018-09-02T03:40:34.750Z,0.00
2018-09-02T03:41:34.844Z,0.00
2018-09-02T03:42:34.933Z,0.00
2018-09-02T03:43:35.026Z,0.00
2018-09-02T03:44:35.119Z,0.00
2018-09-02T03:45:35.210Z,0.00
2018-09-02T03:46:35.304Z,0.00
2018-09-02T03:47:35.403Z,0.00
2018-09-02T03:48:35.490Z,0.00
2018-09-02T03:49:35.585Z,0.00
2018-09-02T03:50:35.674Z,0.00
2018-09-02T03:51:35.777Z,0.00
2018-09-02T03:52:35.871Z,0.00
2018-09-02T03:53:35.972Z,0.00
2018-09-02T03:54:36.056Z,0.00
2018-09-02T03:55:36.149Z,0.00
2018-09-02T03:56:36.240Z,0.00
2018-09-02T03:57:36.332Z,0.00
2018-09-02T03:58:36.424Z,0.00
2018-09-02T03:59:36.519Z,0.00
2018-09-02T04:00:36.600Z,0.00
2018-09-02T04:01:36.689Z,0.00
2018-09-02T04:02:36.782Z,0.00
2018-09-02T04:03:36.874Z,0.00
2018-09-02T04:04:36.967Z,0.00
2018-09-02T04:05:37.061Z,0.00
2018-09-02T04:06:37.153Z,0.00
2018-09-02T04:07:37.247Z,0.00
2018-09-02T04:08:37.337Z,0.00
2018-09-02T04:09:37.432Z,0.00
2018-09-02T04:10:37.525Z,0.00
2018-09-02T04:11:37.618Z,0.00
2018-09-02T04:12:37.716Z,0.00
2018-09-02T04:13:37.804Z,0.00
2018-09-02T04:14:37.896Z,0.00
2018-09-02T04:15:37.993Z,0.00
2018-09-02T04:16:38.096Z,0.00
2018-09-02T04:17:38.182Z,0.00
2018-09-02T04:18:38.272Z,0.00
2018-09-02T04:19:38.362Z,0.00
2018-09-02T04:20:38.460Z,0.00
2018-09-02T04:21:38.556Z,0.00
2018-09-02T04:22:38.650Z,0.00
2018-09-02T04:23:38.747Z,0.00
2018-09-02T04:24:38.839Z,0.00
2018-09-02T04:25:38.930Z,0.00
2018-09-02T04:26:39.025Z,0.00
2018-09-02T04:27:39.116Z,0.00
2018-09-02T04:28:39.209Z,0.00
2018-09-02T04:29:39.301Z,0.00
2018-09-02T04:30:39.397Z,0.00
2018-09-02T04:31:39.491Z,0.00
2018-09-02T04:32:39.586Z,0.00
2018-09-02T04:33:39.729Z,0.00
2018-09-02T04:34:39.769Z,0.00
2018-09-02T04:35:39.861Z,0.00
2018-09-02T04:36:39.954Z,0.00
2018-09-02T04:37:40.046Z,0.00
2018-09-02T04:38:40.138Z,0.00
2018-09-02T04:39:40.233Z,5.63
2018-09-02T04:40:40.325Z,5.63
2018-09-02T04:41:40.425Z,5.63
2018-09-02T04:42:40.513Z,5.63
2018-09-02T04:43:40.607Z,5.63
2018-09-02T04:44:40.705Z,5.63
2018-09-02T04:45:40.801Z,5.63
2018-09-02T04:46:40.893Z,5.63
2018-09-02T04:47:40.984Z,11.25
2018-09-02T04:48:41.077Z,11.25
2018-09-02T04:49:41.167Z,11.25
2018-09-02T04:50:41.259Z,11.25
2018-09-02T04:51:41.359Z,16.88
2018-09-02T04:52:41.453Z,16.88
2018-09-02T04:53:41.543Z,16.88
2018-09-02T04:54:41.638Z,22.50
2018-09-02T04:55:41.729Z,22.50
2018-09-02T04:56:41.822Z,22.50
2018-09-02T04:57:41.916Z,28.13
2018-09-02T04:58:42.001Z,28.13
2018-09-02T04:59:42.094Z,28.13
2018-09-02T05:00:42.185Z,33.75
2018-09-02T05:01:42.279Z,33.75
2018-09-02T05:02:42.375Z,33.75
2018-09-02T05:03:42.520Z,39.38
2018-09-02T05:04:42.584Z,39.38
2018-09-02T05:05:42.679Z,45.00
2018-09-02T05:06:42.776Z,45.00
2018-09-02T05:07:42.867Z,50.63
2018-09-02T05:08:42.963Z,50.63
2018-09-02T05:09:43.054Z,50.63
2018-09-02T05:10:43.148Z,50.63
2018-09-02T05:11:43.239Z,50.63
2018-09-02T05:12:43.339Z,50.63
2018-09-02T05:13:43.435Z,50.63
2018-09-02T05:14:43.527Z,50.63
2018-09-02T05:15:43.622Z,50.63
2018-09-02T05:16:43.715Z,50.63
2018-09-02T05:17:43.808Z,56.25
2018-09-02T05:18:43.903Z,56.25
2018-09-02T05:19:44.005Z,56.25
2018-09-02T05:20:44.099Z,56.25
2018-09-02T05:21:44.192Z,56.25
2018-09-02T05:22:44.286Z,56.25
2018-09-02T05:23:44.379Z,56.25
2018-09-02T05:24:44.479Z,61.88
2018-09-02T05:25:44.570Z,61.88
2018-09-02T05:26:44.667Z,61.88
2018-09-02T05:27:44.760Z,67.50
2018-09-02T05:28:44.855Z,67.50
2018-09-02T05:29:44.948Z,67.50
2018-09-02T05:30:45.042Z,67.50
2018-09-02T05:31:45.136Z,67.50
2018-09-02T05:32:45.231Z,73.13
2018-09-02T05:33:45.322Z,73.13
2018-09-02T05:34:45.416Z,78.75
2018-09-02T05:35:45.513Z,78.75
2018-09-02T05:36:45.663Z,73.13
2018-09-02T05:37:45.702Z,73.13
2018-09-02T05:38:45.795Z,73.13
2018-09-02T05:39:45.890Z,73.13
2018-09-02T05:40:45.985Z,73.13
2018-09-02T05:41:46.083Z,78.75
2018-09-02T05:42:46.171Z,78.75
2018-09-02T05:43:46.265Z,78.75
2018-09-02T05:44:46.360Z,78.75
2018-09-02T05:45:46.455Z,78.75
2018-09-02T05:46:46.550Z,78.75
2018-09-02T05:47:46.645Z,78.75
2018-09-02T05:48:46.741Z,78.75
2018-09-02T05:49:46.833Z,84.38
2018-09-02T05:50:46.929Z,84.38
2018-09-02T05:51:47.022Z,90.00
2018-09-02T05:52:47.118Z,95.63
2018-09-02T05:53:47.212Z,95.63
2018-09-02T05:54:47.307Z,101.25
2018-09-02T05:55:47.401Z,101.25
2018-09-02T05:56:47.497Z,95.63
2018-09-02T05:57:47.591Z,101.25
2018-09-02T05:58:47.685Z,101.25
2018-09-02T05:59:47.779Z,101.25
2018-09-02T06:00:47.873Z,101.25
2018-09-02T06:01:47.969Z,101.25
2018-09-02T06:02:48.088Z,101.25
2018-09-02T06:03:48.159Z,101.25
2018-09-02T06:04:48.256Z,101.25
2018-09-02T06:05:48.350Z,106.88
2018-09-02T06:06:48.446Z,118.13
2018-09-02T06:07:48.541Z,123.75
2018-09-02T06:08:48.639Z,135.00
2018-09-02T06:09:48.733Z,140.63
2018-09-02T06:10:48.826Z,146.25
2018-09-02T06:11:48.921Z,146.25
2018-09-02T06:12:49.014Z,135.00
2018-09-02T06:13:49.111Z,129.38
2018-09-02T06:14:49.204Z,135.00
2018-09-02T06:15:49.305Z,135.00
2018-09-02T06:16:49.408Z,135.00
2018-09-02T06:17:49.503Z,135.00
2018-09-02T06:18:49.601Z,135.00
2018-09-02T06:19:49.693Z,135.00
2018-09-02T06:20:49.790Z,129.38
2018-09-02T06:21:49.884Z,135.00
2018-09-02T06:22:49.978Z,123.75
2018-09-02T06:23:50.080Z,129.38
2018-09-02T06:24:50.169Z,140.63
2018-09-02T06:25:50.263Z,140.63
2018-09-02T06:26:50.359Z,151.88
2018-09-02T06:27:50.454Z,163.13
2018-09-02T06:28:50.549Z,180.00
2018-09-02T06:29:50.646Z,185.63
2018-09-02T06:30:50.741Z,191.25
2018-09-02T06:31:50.834Z,185.63
2018-09-02T06:32:50.973Z,174.38
2018-09-02T06:33:51.022Z,174.38
2018-09-02T06:34:51.118Z,168.75
2018-09-02T06:35:51.216Z,174.38
2018-09-02T06:36:51.310Z,174.38
2018-09-02T06:37:51.405Z,174.38
2018-09-02T06:38:51.502Z,180.00
2018-09-02T06:39:51.599Z,180.00
2018-09-02T06:40:51.699Z,180.00
2018-09-02T06:41:51.794Z,185.63
2018-09-02T06:42:51.893Z,185.63
2018-09-02T06:43:51.978Z,185.63
2018-09-02T06:44:52.070Z,185.63
2018-09-02T06:45:52.245Z,185.63
2018-09-02T06:46:52.260Z,185.63
2018-09-02T06:47:52.357Z,185.63
2018-09-02T06:48:52.453Z,191.25
2018-09-02T06:49:52.553Z,202.50
2018-09-02T06:50:52.648Z,208.13
2018-09-02T06:51:52.745Z,208.13
2018-09-02T06:52:52.841Z,208.13
2018-09-02T06:53:52.938Z,213.75
2018-09-02T06:54:53.030Z,208.13
2018-09-02T06:55:53.126Z,208.13
2018-09-02T06:56:53.225Z,202.50
2018-09-02T06:57:53.321Z,196.88
2018-09-02T06:58:53.416Z,191.25
2018-09-02T06:59:53.514Z,191.25
2018-09-02T07:00:53.611Z,185.63
2018-09-02T07:01:53.709Z,185.63
2018-09-02T07:02:53.807Z,191.25
2018-09-02T07:03:53.900Z,196.88
2018-09-02T07:04:53.995Z,219.38
2018-09-02T07:05:54.089Z,230.63
2018-09-02T07:06:54.188Z,253.13
2018-09-02T07:07:54.285Z,241.88
2018-09-02T07:08:54.381Z,264.38
2018-09-02T07:09:54.497Z,354.38
2018-09-02T07:10:54.594Z,517.50
2018-09-02T07:11:54.692Z,928.13
2018-09-02T07:12:54.786Z,810.00
2018-09-02T07:13:54.881Z,573.75
2018-09-02T07:14:54.976Z,455.63
2018-09-02T07:15:55.073Z,382.50
2018-09-02T07:16:55.168Z,405.00
2018-09-02T07:17:55.265Z,450.00
2018-09-02T07:18:55.362Z,421.88
2018-09-02T07:19:55.519Z,388.13
2018-09-02T07:20:55.558Z,388.13
2018-09-02T07:21:55.655Z,382.50
2018-09-02T07:22:55.752Z,382.50
2018-09-02T07:23:55.845Z,360.00
2018-09-02T07:24:55.939Z,354.38
2018-09-02T07:25:56.035Z,348.75
2018-09-02T07:26:56.133Z,320.63
2018-09-02T07:27:56.234Z,354.38
2018-09-02T07:28:56.326Z,388.13
2018-09-02T07:29:56.437Z,416.25
2018-09-02T07:30:56.532Z,354.38
2018-09-02T07:31:56.632Z,320.63
2018-09-02T07:32:56.726Z,292.50
2018-09-02T07:33:56.825Z,292.50
2018-09-02T07:34:56.925Z,286.88
2018-09-02T07:35:57.023Z,270.00
2018-09-02T07:36:57.119Z,258.75
2018-09-02T07:37:57.218Z,247.50
2018-09-02T07:38:57.314Z,236.25
2018-09-02T07:39:57.417Z,230.63
2018-09-02T07:42:42.113Z,225.00
2018-09-02T07:43:30.626Z,225.00
2018-09-02T07:44:30.685Z,230.63
2018-09-02T07:45:30.780Z,236.25
2018-09-02T07:46:30.877Z,241.88
2018-09-02T07:47:30.983Z,247.50
2018-09-02T07:48:31.070Z,258.75
2018-09-02T07:49:31.169Z,264.38
2018-09-02T07:50:31.277Z,270.00
2018-09-02T07:51:31.373Z,264.38
2018-09-02T07:52:31.471Z,258.75
2018-09-02T07:53:31.570Z,258.75
2018-09-02T07:54:31.669Z,247.50
2018-09-02T07:55:31.763Z,253.13
2018-09-02T07:56:31.860Z,258.75
2018-09-02T07:57:31.959Z,264.38
2018-09-02T07:58:32.055Z,275.63
2018-09-02T07:59:32.151Z,286.88
2018-09-02T08:00:32.249Z,309.38
2018-09-02T08:01:32.347Z,320.63
2018-09-02T08:02:32.482Z,354.38
2018-09-02T08:03:32.541Z,382.50
2018-09-02T08:04:32.630Z,410.63
2018-09-02T08:05:32.727Z,427.50
2018-09-02T08:06:32.820Z,444.38
2018-09-02T08:07:32.920Z,450.00
2018-09-02T08:08:33.015Z,466.88
2018-09-02T08:09:33.113Z,478.13
2018-09-02T08:10:33.214Z,528.75
2018-09-02T08:11:33.315Z,421.88
2018-09-02T08:12:33.469Z,382.50
2018-09-02T08:13:33.507Z,360.00
2018-09-02T08:14:33.608Z,331.88
2018-09-02T08:15:33.701Z,365.63
2018-09-02T08:16:33.799Z,303.75
2018-09-02T08:17:33.896Z,286.88
2018-09-02T08:18:33.989Z,253.13
2018-09-02T08:19:34.094Z,241.88
2018-09-02T08:20:34.179Z,230.63
2018-09-02T08:21:34.274Z,219.38
2018-09-02T08:22:34.372Z,225.00
2018-09-02T08:23:34.469Z,230.63
2018-09-02T08:24:34.562Z,230.63
2018-09-02T08:25:34.662Z,241.88
2018-09-02T08:26:34.821Z,247.50
2018-09-02T08:27:34.856Z,258.75
2018-09-02T08:28:34.954Z,253.13
2018-09-02T08:29:35.049Z,253.13
2018-09-02T08:30:35.150Z,236.25
2018-09-02T08:31:35.245Z,241.88
2018-09-02T08:32:35.344Z,258.75
2018-09-02T08:33:35.429Z,281.25
2018-09-02T08:34:35.529Z,281.25
2018-09-02T08:35:35.624Z,270.00
2018-09-02T08:36:35.722Z,270.00
2018-09-02T08:37:35.821Z,275.63
2018-09-02T08:38:35.919Z,258.75
2018-09-02T08:39:36.021Z,275.63
2018-09-02T08:40:36.115Z,281.25
2018-09-02T08:41:36.210Z,275.63
2018-09-02T08:42:36.306Z,270.00
2018-09-02T08:43:36.406Z,258.75
2018-09-02T08:44:36.496Z,258.75
2018-09-02T08:45:36.595Z,264.38
2018-09-02T08:46:36.693Z,275.63
2018-09-02T08:47:36.792Z,258.75
2018-09-02T08:48:36.893Z,241.88
2018-09-02T08:49:36.990Z,241.88
2018-09-02T08:50:37.153Z,241.88
2018-09-02T08:51:37.183Z,258.75
2018-09-02T08:52:37.279Z,253.13
2018-09-02T08:53:37.377Z,270.00
2018-09-02T08:54:37.477Z,264.38
2018-09-02T08:55:37.576Z,270.00
2018-09-02T08:56:37.672Z,275.63
2018-09-02T08:57:37.771Z,298.13
2018-09-02T08:58:37.866Z,315.00
2018-09-02T08:59:37.962Z,331.88
2018-09-02T09:00:38.059Z,360.00
2018-09-02T09:01:38.188Z,365.63
2018-09-02T09:02:38.251Z,348.75
2018-09-02T09:03:38.351Z,360.00
2018-09-02T09:04:38.442Z,388.13
2018-09-02T09:05:38.538Z,410.63
2018-09-02T09:06:38.638Z,399.38
2018-09-02T09:07:38.859Z,382.50
2018-09-02T09:08:38.932Z,376.88
2018-09-02T09:09:38.931Z,382.50
2018-09-02T09:10:39.026Z,376.88
2018-09-02T09:11:39.124Z,382.50
2018-09-02T09:12:39.219Z,388.13
2018-09-02T09:13:39.317Z,388.13
2018-09-02T09:14:39.415Z,388.13
2018-09-02T09:15:39.516Z,382.50
2018-09-02T09:16:39.674Z,382.50
2018-09-02T09:17:39.724Z,371.25
2018-09-02T09:18:39.826Z,376.88
2018-09-02T09:19:39.923Z,376.88
2018-09-02T09:20:40.172Z,376.88
2018-09-02T09:21:40.235Z,371.25
2018-09-02T09:22:40.363Z,376.88
2018-09-02T09:23:40.344Z,376.88
2018-09-02T09:24:40.443Z,365.63
2018-09-02T09:25:40.538Z,348.75
2018-09-02T09:26:40.637Z,360.00
2018-09-02T09:27:40.734Z,343.13
2018-09-02T09:28:40.838Z,315.00
2018-09-02T09:29:40.933Z,320.63
2018-09-02T09:30:41.030Z,337.50
2018-09-02T09:31:41.127Z,348.75
2018-09-02T09:32:41.228Z,354.38
2018-09-02T09:33:41.323Z,371.25
2018-09-02T09:34:41.422Z,354.38
2018-09-02T09:35:41.516Z,354.38
2018-09-02T09:36:41.614Z,331.88
2018-09-02T09:37:41.710Z,331.88
2018-09-02T09:38:41.806Z,326.25
2018-09-02T09:39:41.903Z,320.63
2018-09-02T09:40:42.000Z,309.38
2018-09-02T09:41:42.099Z,331.88
2018-09-02T09:42:42.193Z,315.00
2018-09-02T09:43:42.293Z,292.50
2018-09-02T09:44:42.392Z,309.38
2018-09-02T09:45:42.492Z,315.00
2018-09-02T09:46:42.590Z,315.00
2018-09-02T09:47:42.689Z,309.38
2018-09-02T09:48:42.784Z,298.13
2018-09-02T09:49:42.880Z,298.13
2018-09-02T09:50:42.978Z,292.50
2018-09-02T09:51:43.094Z,286.88
2018-09-02T09:52:43.192Z,275.63
2018-09-02T09:53:43.308Z,281.25
2018-09-02T09:54:43.401Z,275.63
2018-09-02T09:55:43.560Z,281.25
2018-09-02T09:56:43.598Z,281.25
2018-09-02T09:57:43.702Z,281.25
2018-09-02T09:58:43.807Z,281.25
2018-09-02T09:59:43.904Z,286.88
2018-09-02T10:00:44.002Z,286.88
2018-09-02T10:01:44.099Z,286.88
2018-09-02T10:02:44.199Z,286.88
2018-09-02T10:03:44.352Z,281.25
2018-09-02T10:04:44.394Z,281.25
2018-09-02T10:05:44.492Z,275.63
2018-09-02T10:06:44.589Z,270.00
2018-09-02T10:07:44.689Z,264.38
2018-09-02T10:08:44.785Z,264.38
2018-09-02T10:09:44.882Z,258.75
2018-09-02T10:10:44.979Z,258.75
2018-09-02T10:11:45.155Z,253.13
2018-09-02T10:12:45.167Z,253.13
2018-09-02T10:13:45.273Z,253.13
2018-09-02T10:14:45.368Z,247.50
2018-09-02T10:15:45.467Z,241.88
2018-09-02T10:16:45.566Z,236.25
2018-09-02T10:17:45.661Z,236.25
2018-09-02T10:18:45.761Z,236.25
2018-09-02T10:19:45.858Z,230.63
2018-09-02T10:20:45.953Z,230.63
2018-09-02T10:21:46.052Z,236.25
2018-09-02T10:22:46.149Z,236.25
2018-09-02T10:23:46.247Z,236.25
2018-09-02T10:24:46.345Z,236.25
2018-09-02T10:25:46.452Z,230.63
2018-09-02T10:26:46.551Z,230.63
2018-09-02T10:27:46.647Z,225.00
2018-09-02T10:28:46.749Z,230.63
2018-09-02T10:29:46.846Z,230.63
2018-09-02T10:30:46.943Z,230.63
2018-09-02T10:31:47.041Z,225.00
2018-09-02T10:32:47.145Z,230.63
2018-09-02T10:33:47.241Z,225.00
2018-09-02T10:34:47.337Z,225.00
2018-09-02T10:35:47.436Z,219.38
2018-09-02T10:36:47.535Z,219.38
2018-09-02T10:37:47.635Z,225.00
2018-09-02T10:38:47.732Z,225.00
2018-09-02T10:39:47.818Z,230.63
2018-09-02T10:40:47.985Z,225.00
2018-09-02T10:41:48.028Z,213.75
2018-09-02T10:42:48.125Z,208.13
2018-09-02T10:43:48.224Z,208.13
2018-09-02T10:44:48.324Z,202.50
2018-09-02T10:45:48.420Z,202.50
2018-09-02T10:46:48.515Z,202.50
2018-09-02T10:47:48.612Z,213.75
2018-09-02T10:48:48.710Z,213.75
2018-09-02T10:49:48.916Z,219.38
2018-09-02T10:50:48.907Z,219.38
2018-09-02T10:51:49.004Z,219.38
2018-09-02T10:52:49.103Z,225.00
2018-09-02T10:53:49.202Z,225.00
2018-09-02T10:54:49.296Z,219.38
2018-09-02T10:55:49.397Z,219.38
2018-09-02T10:56:49.499Z,225.00
2018-09-02T10:57:49.591Z,236.25
2018-09-02T10:58:49.691Z,236.25
2018-09-02T10:59:49.810Z,230.63
2018-09-02T11:00:49.906Z,230.63
2018-09-02T11:01:50.010Z,225.00
2018-09-02T11:02:50.104Z,225.00
2018-09-02T11:03:50.201Z,219.38
2018-09-02T11:04:50.302Z,208.13
2018-09-02T11:05:50.396Z,208.13
2018-09-02T11:06:50.496Z,196.88
2018-09-02T11:07:50.657Z,196.88
2018-09-02T11:08:50.771Z,202.50
2018-09-02T11:09:50.793Z,219.38
2018-09-02T11:10:50.888Z,236.25
2018-09-02T11:11:50.993Z,253.13
2018-09-02T11:12:51.086Z,253.13
2018-09-02T11:13:51.345Z,258.75
2018-09-02T11:14:51.270Z,253.13
2018-09-02T11:15:51.365Z,247.50
2018-09-02T11:16:51.462Z,241.88
2018-09-02T11:17:51.561Z,236.25
2018-09-02T11:18:51.659Z,236.25
2018-09-02T11:19:51.757Z,241.88
2018-09-02T11:20:51.854Z,247.50
2018-09-02T11:21:51.951Z,258.75
2018-09-02T11:22:52.051Z,270.00
2018-09-02T11:23:52.150Z,281.25
2018-09-02T11:24:52.246Z,292.50
2018-09-02T11:25:52.341Z,298.13
2018-09-02T11:26:52.501Z,303.75
2018-09-02T11:27:52.558Z,309.38
2018-09-02T11:28:52.649Z,303.75
2018-09-02T11:29:52.749Z,298.13
2018-09-02T11:30:52.845Z,292.50
2018-09-02T11:31:52.943Z,281.25
2018-09-02T11:32:53.045Z,281.25
2018-09-02T11:33:53.199Z,292.50
2018-09-02T11:34:53.240Z,298.13
2018-09-02T11:35:53.338Z,315.00
2018-09-02T11:36:53.436Z,331.88
2018-09-02T11:37:53.537Z,315.00
2018-09-02T11:38:53.634Z,331.88
2018-09-02T11:39:53.732Z,337.50
2018-09-02T11:40:53.831Z,337.50
2018-09-02T11:41:53.929Z,337.50
2018-09-02T11:42:54.024Z,326.25
2018-09-02T11:43:54.122Z,326.25
2018-09-02T11:44:54.252Z,320.63
2018-09-02T11:45:54.315Z,309.38
2018-09-02T11:46:54.491Z,320.63
2018-09-02T11:47:54.514Z,315.00
2018-09-02T11:48:54.611Z,337.50
2018-09-02T11:49:54.713Z,348.75
2018-09-02T11:50:54.810Z,343.13
2018-09-02T11:51:54.909Z,309.38
2018-09-02T11:52:55.009Z,264.38
2018-09-02T11:53:55.105Z,258.75
2018-09-02T11:54:55.202Z,258.75
2018-09-02T11:55:55.302Z,258.75
2018-09-02T11:56:55.402Z,292.50
2018-09-02T11:57:55.496Z,298.13
2018-09-02T11:58:55.596Z,315.00
2018-09-02T11:59:55.695Z,343.13
2018-09-02T12:00:55.805Z,371.25
2018-09-02T12:01:55.908Z,360.00
2018-09-02T12:02:56.003Z,326.25
2018-09-02T12:03:56.116Z,331.88
2018-09-02T12:04:56.371Z,348.75
2018-09-02T12:05:56.298Z,354.38
2018-09-02T12:06:56.393Z,393.75
2018-09-02T12:07:56.491Z,421.88
2018-09-02T12:08:56.591Z,438.75
2018-09-02T12:09:56.689Z,444.38
2018-09-02T12:10:56.787Z,466.88
2018-09-02T12:11:56.885Z,466.88
2018-09-02T12:12:56.990Z,461.25
2018-09-02T12:13:57.096Z,472.50
2018-09-02T12:14:57.284Z,478.13
2018-09-02T12:15:57.281Z,466.88
2018-09-02T12:16:57.378Z,421.88
2018-09-02T12:17:57.478Z,382.50
2018-09-02T12:18:57.575Z,348.75
2018-09-02T12:19:57.674Z,326.25
2018-09-02T12:20:57.772Z,309.38
2018-09-02T12:21:57.870Z,315.00
2018-09-02T12:22:57.965Z,315.00
2018-09-02T12:23:58.064Z,309.38
2018-09-02T12:24:58.163Z,303.75
2018-09-02T12:25:58.259Z,298.13
2018-09-02T12:26:58.361Z,298.13
2018-09-02T12:27:58.459Z,292.50
2018-09-02T12:28:58.556Z,286.88
2018-09-02T12:29:58.654Z,281.25
2018-09-02T12:30:58.751Z,286.88
2018-09-02T12:31:58.853Z,292.50
2018-09-02T12:32:58.953Z,292.50
2018-09-02T12:33:59.048Z,281.25
2018-09-02T12:34:59.156Z,270.00
2018-09-02T12:35:59.252Z,264.38
2018-09-02T12:36:59.350Z,258.75
2018-09-02T12:37:59.450Z,236.25
2018-09-02T12:38:59.550Z,236.25
2018-09-02T12:39:59.647Z,213.75
2018-09-02T12:40:59.745Z,202.50
2018-09-02T12:41:59.845Z,196.88
2018-09-02T12:42:59.941Z,202.50
2018-09-02T12:44:00.039Z,202.50
2018-09-02T12:45:00.135Z,202.50
2018-09-02T12:46:00.234Z,185.63
2018-09-02T12:47:00.332Z,163.13
2018-09-02T12:48:00.524Z,146.25
2018-09-02T12:49:00.535Z,135.00
2018-09-02T12:50:00.624Z,140.63
2018-09-02T12:51:00.723Z,151.88